LIBR Airport Information

Runway Information
Runway 05 Length 6132 ft width 148 ft
Elevation 46 ft Threshold 0 ft Heading 53
Runway 23 Length 6132 ft Width 148 ft
Elevation 13 ft Threshold 230 ft Heading 233
Runway 13 Length 8307 ft width 148 ft
Elevation 29 ft Threshold 0 ft Heading 137
Runway 31 Length 8307 ft Width 148 ft
Elevation 26 ft Threshold 0 ft Heading 317
Airport Frequencies
Type APP Name BRINDISI A Frequency 36.365 MHZ
Type APP Name BRINDISI A Frequency 118.4 MHZ
Type GND Name GND Frequency 31.355 MHZ
Type ILS RWY 32 Name Frequency 109.5 MHZ
Type TWR Name BRINDISI T Frequency 118.1 MHZ
Airport Navaids
Type VORTAC Name Brindisi Frequency 113200 KHZ
Type NDB Name Brindisi Frequency 364 KHZ
Airport Weather Information & NOTAM
ADDS - METARS form results

(0557 UTC 19 July 2019)
Data provider http://aviationweather.gov/metar/data/
 
METAR text: LIBR 190550Z 22004KT CAVOK 23/18 Q1014
Conditions at: LIBR (BRINDISI/CASALE , IT) observed 0550 UTC 19 July 2019
Temperature: 23.0°C (73°F)
Dewpoint: 18.0°C (64°F) [RH = 73%]
Pressure (altimeter): 29.94 inches Hg (1014.0 mb)
Winds: from the SW (220 degrees) at 5 MPH (4 knots; 2.1 m/s)
Visibility: 6 or more miles (10+ km)
Ceiling: ceiling and visibility are OK
Clouds: unknown
Weather: no significant weather observed at this time

METAR text: LIBR 190520Z 24004KT CAVOK 21/18 Q1014
Conditions at: LIBR (BRINDISI/CASALE , IT) observed 0520 UTC 19 July 2019
Temperature: 21.0°C (70°F)
Dewpoint: 18.0°C (64°F) [RH = 83%]
Pressure (altimeter): 29.94 inches Hg (1014.0 mb)
Winds: from the WSW (240 degrees) at 5 MPH (4 knots; 2.1 m/s)
Visibility: 6 or more miles (10+ km)
Ceiling: ceiling and visibility are OK
Clouds: unknown
Weather: no significant weather observed at this time

Forecast for: LIBR (BRINDISI/CASALE , IT)
Text: TAF LIBR 190500Z 1906/2006 VRB05KT CAVOK
Forecast period: 0600 to 0800 UTC 19 July 2019
Forecast type: FROM: standard forecast or significant change
Winds: variable direction winds at 6 MPH (5 knots; 2.6 m/s)
Visibility: 6 or more miles 10+ km)
Ceiling: unknown
Clouds: missing
Weather: NSW  (no significant weather)
Text: BECMG 1908/1910 03012KT
Forecast period: 0800 to 1600 UTC 19 July 2019
Forecast type: BECOMING: Conditions expected to become as follows by 1000 UTC 19 July 2019
Winds: from the NNE (30 degrees) at 14 MPH (12 knots; 6.2 m/s)
Visibility: 6 or more miles 10+ km)
Ceiling: unknown
Clouds: missing
Weather: NSW  (no significant weather)
Text: BECMG 1916/1918 VRB05KT
Forecast period: 1600 UTC 19 July 2019 to 0600 UTC 20 July 2019
Forecast type: BECOMING: Conditions expected to become as follows by 1800 UTC 19 July 2019
Winds: variable direction winds at 6 MPH (5 knots; 2.6 m/s)
Visibility: 6 or more miles 10+ km)
Ceiling: unknown
Clouds: missing
Weather: NSW  (no significant weather)